createdAt,value
2023-04-10T00:00:31.762Z,6.17
2023-04-10T00:04:33.641Z,6.07
2023-04-10T00:08:36.500Z,6.67
2023-04-10T00:12:38.082Z,12.03
2023-04-10T00:16:39.528Z,6.83
2023-04-10T00:20:41.210Z,7.23
2023-04-10T00:24:44.021Z,10.57
2023-04-10T00:28:45.457Z,6.30
2023-04-10T00:32:47.181Z,6.80
2023-04-10T00:36:49.667Z,7.77
2023-04-10T00:40:52.916Z,6.83
2023-04-10T00:44:54.388Z,7.27
2023-04-10T00:48:57.445Z,8.53
2023-04-10T00:52:59.179Z,6.40
2023-04-10T00:57:02.664Z,6.63
2023-04-10T01:01:04.387Z,6.50
2023-04-10T01:05:07.890Z,6.13
2023-04-10T01:09:17.284Z,10.17
2023-04-10T01:13:25.140Z,7.00
2023-04-10T01:17:32.757Z,7.47
2023-04-10T01:21:36.410Z,7.17
2023-04-10T01:25:45.868Z,8.27
2023-04-10T01:29:56.043Z,8.17
2023-04-10T01:34:01.370Z,7.17
2023-04-10T01:38:05.189Z,8.43
2023-04-10T01:42:07.488Z,6.57
2023-04-10T01:46:12.539Z,7.10
2023-04-10T01:50:14.406Z,8.00
2023-04-10T01:54:17.358Z,8.73
2023-04-10T01:58:19.173Z,7.17
2023-04-10T02:02:22.834Z,7.63
2023-04-10T02:06:30.027Z,8.40
2023-04-10T02:10:39.669Z,8.13
2023-04-10T02:14:46.652Z,9.43
2023-04-10T02:18:50.505Z,8.70
2023-04-10T02:22:53.298Z,8.70
2023-04-10T02:26:54.984Z,8.37
2023-04-10T02:30:56.492Z,8.93
2023-04-10T02:35:00.028Z,9.57
2023-04-10T02:39:01.448Z,10.83
2023-04-10T02:43:02.904Z,8.00
2023-04-10T02:47:04.495Z,7.60
2023-04-10T02:51:07.926Z,9.63
2023-04-10T02:55:10.508Z,9.33
2023-04-10T02:59:12.531Z,15.43
2023-04-10T03:03:14.513Z,8.27
2023-04-10T03:07:17.340Z,8.27
2023-04-10T03:11:18.970Z,8.27
2023-04-10T03:15:22.018Z,10.13
2023-04-10T03:19:24.503Z,7.97
2023-04-10T03:23:27.772Z,8.27
2023-04-10T03:27:31.079Z,8.90
2023-04-10T03:31:33.818Z,9.13
2023-04-10T03:35:36.305Z,7.90
2023-04-10T03:39:39.696Z,7.80
2023-04-10T03:43:41.323Z,8.03
2023-04-10T03:47:43.227Z,8.27
2023-04-10T03:51:44.912Z,8.13
2023-04-10T03:55:49.642Z,9.77
2023-04-10T03:59:51.069Z,8.90
2023-04-10T04:03:54.139Z,7.93
2023-04-10T04:07:56.236Z,10.07
2023-04-10T04:11:59.073Z,8.57
2023-04-10T04:16:00.788Z,8.83
2023-04-10T04:20:02.209Z,10.33
2023-04-10T04:24:03.895Z,9.10
2023-04-10T04:28:09.027Z,9.03
2023-04-10T04:32:10.707Z,7.23
2023-04-10T04:36:12.755Z,7.07
2023-04-10T04:40:14.335Z,7.47
2023-04-10T04:44:18.462Z,7.90
2023-04-10T04:48:20.484Z,7.07
2023-04-10T04:52:21.900Z,7.47
2023-04-10T04:56:23.320Z,8.27
2023-04-10T05:00:26.238Z,7.27
2023-04-10T05:04:27.778Z,9.57
2023-04-10T05:08:29.474Z,7.97
2023-04-10T05:12:31.233Z,7.43
2023-04-10T05:16:36.497Z,7.83
2023-04-10T05:20:37.950Z,8.87
2023-04-10T05:24:39.450Z,7.53
2023-04-10T05:28:40.886Z,6.80
2023-04-10T05:32:43.947Z,7.13
2023-04-10T05:36:45.377Z,8.30
2023-04-10T05:40:46.807Z,9.27
2023-04-10T05:44:48.218Z,7.17
2023-04-10T05:48:51.064Z,7.30
2023-04-10T05:52:52.761Z,9.20
2023-04-10T05:56:54.138Z,6.27
2023-04-10T06:00:55.861Z,7.03
2023-04-10T06:04:58.793Z,7.00
2023-04-10T06:09:00.446Z,8.63
2023-04-10T06:13:02.087Z,8.67
2023-04-10T06:17:03.548Z,6.87
2023-04-10T06:21:07.272Z,7.17
2023-04-10T06:25:09.676Z,7.87
2023-04-10T06:29:11.280Z,6.60
2023-04-10T06:33:13.790Z,7.53
2023-04-10T06:37:16.803Z,6.83
2023-04-10T06:41:19.249Z,6.30
2023-04-10T06:45:20.862Z,6.00
2023-04-10T06:49:22.250Z,6.40
2023-04-10T06:53:25.253Z,7.40
2023-04-10T06:57:26.752Z,5.40
2023-04-10T07:01:28.609Z,7.43
2023-04-10T07:05:30.304Z,6.57
2023-04-10T07:09:33.026Z,7.67
2023-04-10T07:13:36.478Z,6.30
2023-04-10T07:17:39.073Z,6.07
2023-04-10T07:21:40.675Z,5.67
2023-04-10T07:25:43.487Z,6.47
2023-04-10T07:29:45.186Z,6.27
2023-04-10T07:33:47.019Z,6.10
2023-04-10T07:37:48.597Z,5.93
2023-04-10T07:41:53.332Z,6.47
2023-04-10T07:45:55.965Z,5.90
2023-04-10T07:49:57.379Z,6.17
2023-04-10T07:53:59.129Z,6.57
2023-04-10T07:58:02.167Z,5.97
2023-04-10T08:02:06.344Z,5.70
2023-04-10T08:06:08.350Z,6.63
2023-04-10T08:10:10.374Z,7.93
2023-04-10T08:14:13.367Z,6.27
2023-04-10T08:18:19.628Z,6.67
2023-04-10T08:22:21.091Z,6.47
2023-04-10T08:26:23.073Z,5.70
2023-04-10T08:30:26.011Z,6.87
2023-04-10T08:34:27.723Z,7.13
2023-04-10T08:38:29.239Z,6.70
2023-04-10T08:42:34.734Z,6.33
2023-04-10T08:46:42.951Z,5.13
2023-04-10T08:50:47.977Z,6.73
2023-04-10T08:54:53.717Z,4.43
2023-04-10T08:58:55.545Z,6.47
2023-04-10T09:02:58.800Z,4.67
2023-04-10T09:07:00.894Z,4.60
2023-04-10T09:11:02.353Z,4.83
2023-04-10T09:15:04.526Z,4.73
2023-04-10T09:19:07.779Z,4.53
2023-04-10T09:23:20.607Z,4.83
2023-04-10T09:27:29.768Z,6.73
2023-04-10T09:31:33.184Z,4.17
2023-04-10T09:35:39.081Z,4.37
2023-04-10T09:39:40.549Z,4.17
2023-04-10T09:43:43.498Z,4.20
2023-04-10T09:48:01.305Z,4.00
2023-04-10T09:52:18.459Z,4.00
2023-04-10T09:56:20.236Z,4.27
2023-04-10T10:00:21.611Z,4.70
2023-04-10T10:04:24.154Z,3.50
2023-04-10T10:08:28.201Z,4.17
2023-04-10T10:12:35.222Z,3.43
2023-04-10T10:16:43.354Z,5.13
2023-04-10T10:20:45.784Z,3.97
2023-04-10T10:24:49.440Z,6.00
2023-04-10T10:28:51.513Z,3.63
2023-04-10T10:32:53.083Z,3.60
2023-04-10T10:36:54.671Z,3.13
2023-04-10T10:41:02.440Z,4.07
2023-04-10T10:45:11.144Z,2.73
2023-04-10T10:49:12.565Z,6.60
2023-04-10T10:53:33.156Z,3.40
2023-04-10T10:57:51.732Z,3.10
2023-04-10T11:02:13.208Z,2.73
2023-04-10T11:06:16.649Z,3.93
2023-04-10T11:10:38.586Z,2.60
2023-04-10T11:14:43.043Z,3.07
2023-04-10T11:19:14.211Z,3.10
2023-04-10T11:23:17.348Z,5.90
2023-04-10T11:27:47.526Z,2.87
2023-04-10T11:31:56.282Z,2.80
2023-04-10T11:35:58.205Z,3.40
2023-04-10T11:40:04.421Z,3.90
2023-04-10T11:44:07.820Z,2.20
2023-04-10T11:48:10.742Z,2.30
2023-04-10T11:52:12.252Z,3.70
2023-04-10T18:28:09.598Z,2.70
2023-04-10T18:32:10.564Z,2.03
2023-04-10T18:36:11.997Z,3.23
2023-04-10T18:40:16.404Z,4.43
2023-04-10T18:54:33.486Z,6.63
2023-04-10T18:58:34.994Z,4.10
2023-04-10T19:02:45.148Z,4.63
2023-04-10T19:06:48.801Z,1.67
2023-04-10T19:10:51.510Z,2.07
2023-04-10T19:14:52.896Z,2.07
2023-04-10T19:18:55.057Z,3.43
2023-04-10T19:22:56.750Z,2.87
2023-04-10T19:26:59.716Z,2.00
2023-04-10T19:31:01.410Z,3.30
2023-04-10T19:35:02.944Z,4.97
2023-04-10T19:39:04.921Z,2.30
2023-04-10T19:43:07.660Z,3.50
2023-04-10T19:47:09.069Z,2.77
2023-04-10T19:51:10.505Z,5.30
2023-04-10T19:55:12.018Z,5.50
2023-04-10T19:59:14.805Z,4.30
2023-04-10T20:03:16.464Z,4.40
2023-04-10T20:07:17.997Z,4.67
2023-04-10T20:11:19.885Z,3.10
2023-04-10T20:15:22.652Z,3.73
2023-04-10T20:19:24.074Z,4.13
2023-04-10T20:23:25.498Z,5.83
2023-04-10T20:27:29.504Z,3.30
2023-04-10T20:31:34.687Z,2.00
2023-04-10T20:35:36.284Z,3.33
2023-04-10T20:39:37.958Z,1.33
2023-04-10T20:43:39.854Z,2.17
2023-04-10T20:47:42.837Z,1.97
2023-04-10T20:51:44.539Z,3.43
2023-04-10T20:55:45.937Z,4.10
2023-04-10T20:59:47.352Z,3.00
2023-04-10T21:03:50.423Z,2.60
2023-04-10T21:07:52.146Z,2.60
2023-04-10T21:11:53.806Z,3.30
2023-04-10T21:15:55.156Z,2.83
2023-04-10T21:19:58.105Z,2.07
2023-04-10T21:23:59.769Z,5.13
2023-04-10T21:28:01.607Z,6.90
2023-04-10T21:32:03.506Z,2.77
2023-04-10T21:36:07.360Z,5.50
2023-04-10T21:40:09.569Z,1.87
2023-04-10T21:44:10.944Z,5.77
2023-04-10T21:48:12.429Z,5.33
2023-04-10T21:52:15.425Z,2.67
2023-04-10T21:56:16.822Z,2.00
2023-04-10T22:00:18.678Z,1.57
2023-04-10T22:04:21.713Z,2.67
2023-04-10T22:08:24.597Z,2.47
2023-04-10T22:12:26.063Z,1.40
2023-04-10T22:16:27.454Z,2.67
2023-04-10T22:20:28.868Z,2.17
2023-04-10T22:24:35.234Z,2.30
2023-04-10T22:28:36.763Z,1.83
2023-04-10T22:32:38.308Z,1.03
2023-04-10T22:36:40.323Z,1.23
2023-04-10T22:40:43.040Z,3.53
2023-04-10T22:44:44.883Z,3.53
2023-04-10T22:48:46.956Z,0.93
2023-04-10T22:52:48.730Z,2.90
2023-04-10T22:56:51.691Z,3.33
2023-04-10T23:00:53.261Z,1.50
2023-04-10T23:04:54.864Z,2.17
2023-04-10T23:08:56.534Z,2.27
2023-04-10T23:12:59.613Z,1.13
2023-04-10T23:17:01.015Z,4.03
2023-04-10T23:21:05.247Z,2.60
2023-04-10T23:25:07.210Z,1.80
2023-04-10T23:29:10.234Z,1.63
2023-04-10T23:33:11.683Z,2.50
2023-04-10T23:37:13.114Z,2.30
2023-04-10T23:41:14.503Z,2.00
2023-04-10T23:45:17.257Z,2.43
2023-04-10T23:49:18.724Z,2.13
2023-04-10T23:53:20.102Z,4.10
2023-04-10T23:57:21.539Z,1.80
